sensor_id;sensor_type;location;lat;lon;timestamp;P1;durP1;ratioP1;P2;durP2;ratioP2
18818;SDS011;9537;45.594;9.294;2022-09-17T00:00:48;1.38;;;1.25;;
18818;SDS011;9537;45.594;9.294;2022-09-17T00:01:51;1.65;;;1.20;;
18818;SDS011;9537;45.594;9.294;2022-09-17T00:02:53;2.08;;;1.30;;
18818;SDS011;9537;45.594;9.294;2022-09-17T00:03:56;1.52;;;1.30;;
18818;SDS011;9537;45.594;9.294;2022-09-17T00:04:59;1.90;;;1.48;;
18818;SDS011;9537;45.594;9.294;2022-09-17T00:06:03;2.00;;;1.45;;
18818;SDS011;9537;45.594;9.294;2022-09-17T00:07:06;2.38;;;1.42;;
18818;SDS011;9537;45.594;9.294;2022-09-17T00:08:09;2.25;;;1.38;;
18818;SDS011;9537;45.594;9.294;2022-09-17T00:09:13;2.85;;;1.40;;
18818;SDS011;9537;45.594;9.294;2022-09-17T00:10:15;2.17;;;1.50;;
18818;SDS011;9537;45.594;9.294;2022-09-17T00:11:17;3.13;;;1.65;;
18818;SDS011;9537;45.594;9.294;2022-09-17T00:12:21;2.33;;;1.70;;
18818;SDS011;9537;45.594;9.294;2022-09-17T00:13:22;4.95;;;1.70;;
18818;SDS011;9537;45.594;9.294;2022-09-17T00:14:24;2.60;;;1.80;;
18818;SDS011;9537;45.594;9.294;2022-09-17T00:15:26;2.80;;;1.92;;
18818;SDS011;9537;45.594;9.294;2022-09-17T00:16:27;3.63;;;1.83;;
18818;SDS011;9537;45.594;9.294;2022-09-17T00:17:32;3.67;;;2.00;;
18818;SDS011;9537;45.594;9.294;2022-09-17T00:18:33;5.80;;;2.05;;
18818;SDS011;9537;45.594;9.294;2022-09-17T00:19:39;5.80;;;2.50;;
18818;SDS011;9537;45.594;9.294;2022-09-17T00:20:41;4.97;;;2.30;;
18818;SDS011;9537;45.594;9.294;2022-09-17T00:21:45;3.97;;;2.45;;
18818;SDS011;9537;45.594;9.294;2022-09-17T00:22:47;3.05;;;2.03;;
18818;SDS011;9537;45.594;9.294;2022-09-17T00:23:51;4.82;;;2.47;;
18818;SDS011;9537;45.594;9.294;2022-09-17T00:24:54;4.43;;;2.15;;
18818;SDS011;9537;45.594;9.294;2022-09-17T00:25:56;4.22;;;2.40;;
18818;SDS011;9537;45.594;9.294;2022-09-17T00:26:58;5.45;;;2.50;;
18818;SDS011;9537;45.594;9.294;2022-09-17T00:28:00;3.45;;;2.30;;
18818;SDS011;9537;45.594;9.294;2022-09-17T00:29:01;4.07;;;2.42;;
18818;SDS011;9537;45.594;9.294;2022-09-17T00:30:04;3.10;;;2.40;;
18818;SDS011;9537;45.594;9.294;2022-09-17T00:31:07;3.80;;;2.53;;
18818;SDS011;9537;45.594;9.294;2022-09-17T00:32:09;8.57;;;3.83;;
18818;SDS011;9537;45.594;9.294;2022-09-17T00:33:12;8.52;;;3.85;;
18818;SDS011;9537;45.594;9.294;2022-09-17T00:34:15;7.55;;;4.10;;
18818;SDS011;9537;45.594;9.294;2022-09-17T00:35:17;5.80;;;3.80;;
18818;SDS011;9537;45.594;9.294;2022-09-17T00:36:19;7.25;;;4.82;;
18818;SDS011;9537;45.594;9.294;2022-09-17T00:37:23;12.45;;;8.40;;
18818;SDS011;9537;45.594;9.294;2022-09-17T00:38:25;44.88;;;27.25;;
18818;SDS011;9537;45.594;9.294;2022-09-17T00:39:26;45.67;;;27.63;;
18818;SDS011;9537;45.594;9.294;2022-09-17T00:40:28;50.85;;;31.83;;
18818;SDS011;9537;45.594;9.294;2022-09-17T00:41:31;46.03;;;28.05;;
18818;SDS011;9537;45.594;9.294;2022-09-17T00:42:34;32.92;;;20.40;;
18818;SDS011;9537;45.594;9.294;2022-09-17T00:43:37;45.78;;;25.40;;
18818;SDS011;9537;45.594;9.294;2022-09-17T00:44:43;44.30;;;23.73;;
18818;SDS011;9537;45.594;9.294;2022-09-17T00:45:47;33.33;;;17.17;;
18818;SDS011;9537;45.594;9.294;2022-09-17T00:46:52;27.23;;;15.38;;
18818;SDS011;9537;45.594;9.294;2022-09-17T00:47:54;68.43;;;29.75;;
18818;SDS011;9537;45.594;9.294;2022-09-17T00:49:00;83.75;;;35.58;;
18818;SDS011;9537;45.594;9.294;2022-09-17T00:50:05;68.63;;;28.52;;
18818;SDS011;9537;45.594;9.294;2022-09-17T00:51:08;39.67;;;16.35;;
18818;SDS011;9537;45.594;9.294;2022-09-17T00:52:12;21.40;;;9.02;;
18818;SDS011;9537;45.594;9.294;2022-09-17T00:53:19;14.48;;;7.07;;
18818;SDS011;9537;45.594;9.294;2022-09-17T00:54:21;8.52;;;5.40;;
18818;SDS011;9537;45.594;9.294;2022-09-17T00:55:26;8.80;;;5.32;;
18818;SDS011;9537;45.594;9.294;2022-09-17T00:56:30;9.73;;;4.72;;
18818;SDS011;9537;45.594;9.294;2022-09-17T00:57:34;4.65;;;3.72;;
18818;SDS011;9537;45.594;9.294;2022-09-17T00:58:36;5.45;;;4.05;;
18818;SDS011;9537;45.594;9.294;2022-09-17T00:59:39;7.20;;;4.38;;
18818;SDS011;9537;45.594;9.294;2022-09-17T01:00:41;5.68;;;3.35;;
18818;SDS011;9537;45.594;9.294;2022-09-17T01:01:43;5.45;;;3.97;;
18818;SDS011;9537;45.594;9.294;2022-09-17T01:02:45;10.70;;;4.20;;
18818;SDS011;9537;45.594;9.294;2022-09-17T01:03:48;6.78;;;3.80;;
18818;SDS011;9537;45.594;9.294;2022-09-17T01:04:49;6.82;;;3.72;;
18818;SDS011;9537;45.594;9.294;2022-09-17T01:05:53;4.50;;;4.10;;
18818;SDS011;9537;45.594;9.294;2022-09-17T01:07:07;7.35;;;4.10;;
18818;SDS011;9537;45.594;9.294;2022-09-17T01:08:16;8.48;;;4.05;;
18818;SDS011;9537;45.594;9.294;2022-09-17T01:09:27;4.18;;;3.78;;
18818;SDS011;9537;45.594;9.294;2022-09-17T01:10:38;4.43;;;3.40;;
18818;SDS011;9537;45.594;9.294;2022-09-17T01:12:05;8.10;;;3.78;;
18818;SDS011;9537;45.594;9.294;2022-09-17T01:13:18;8.30;;;3.40;;
18818;SDS011;9537;45.594;9.294;2022-09-17T01:14:35;4.57;;;3.20;;
18818;SDS011;9537;45.594;9.294;2022-09-17T01:15:46;3.35;;;3.05;;
18818;SDS011;9537;45.594;9.294;2022-09-17T01:16:56;5.90;;;3.53;;
18818;SDS011;9537;45.594;9.294;2022-09-17T01:18:10;6.40;;;4.43;;
18818;SDS011;9537;45.594;9.294;2022-09-17T01:19:35;11.00;;;4.10;;
18818;SDS011;9537;45.594;9.294;2022-09-17T01:21:01;3.65;;;3.22;;
18818;SDS011;9537;45.594;9.294;2022-09-17T01:22:25;4.32;;;3.92;;
18818;SDS011;9537;45.594;9.294;2022-09-17T01:23:40;7.47;;;4.07;;
18818;SDS011;9537;45.594;9.294;2022-09-17T01:25:11;6.13;;;4.80;;
18818;SDS011;9537;45.594;9.294;2022-09-17T01:26:34;8.13;;;4.40;;
18818;SDS011;9537;45.594;9.294;2022-09-17T01:28:02;10.35;;;3.88;;
18818;SDS011;9537;45.594;9.294;2022-09-17T01:29:26;7.65;;;4.65;;
18818;SDS011;9537;45.594;9.294;2022-09-17T01:32:06;7.10;;;3.80;;
18818;SDS011;9537;45.594;9.294;2022-09-17T01:33:12;4.15;;;3.67;;
18818;SDS011;9537;45.594;9.294;2022-09-17T01:34:21;4.65;;;3.83;;
18818;SDS011;9537;45.594;9.294;2022-09-17T01:35:32;6.18;;;3.83;;
18818;SDS011;9537;45.594;9.294;2022-09-17T01:36:41;3.92;;;3.35;;
18818;SDS011;9537;45.594;9.294;2022-09-17T01:37:51;5.13;;;3.95;;
18818;SDS011;9537;45.594;9.294;2022-09-17T01:39:02;4.13;;;3.58;;
18818;SDS011;9537;45.594;9.294;2022-09-17T01:40:11;5.07;;;3.67;;
18818;SDS011;9537;45.594;9.294;2022-09-17T01:41:26;5.72;;;4.00;;
18818;SDS011;9537;45.594;9.294;2022-09-17T01:42:33;5.05;;;3.80;;
18818;SDS011;9537;45.594;9.294;2022-09-17T01:43:41;5.13;;;3.63;;
18818;SDS011;9537;45.594;9.294;2022-09-17T01:44:51;5.80;;;3.38;;
18818;SDS011;9537;45.594;9.294;2022-09-17T01:46:02;11.38;;;4.20;;
18818;SDS011;9537;45.594;9.294;2022-09-17T01:47:10;6.00;;;3.40;;
18818;SDS011;9537;45.594;9.294;2022-09-17T01:48:17;6.05;;;3.30;;
18818;SDS011;9537;45.594;9.294;2022-09-17T01:49:22;6.68;;;3.50;;
18818;SDS011;9537;45.594;9.294;2022-09-17T01:50:26;4.95;;;3.72;;
18818;SDS011;9537;45.594;9.294;2022-09-17T01:51:34;6.75;;;3.53;;
18818;SDS011;9537;45.594;9.294;2022-09-17T01:52:38;4.22;;;3.10;;
18818;SDS011;9537;45.594;9.294;2022-09-17T01:53:45;5.65;;;3.47;;
18818;SDS011;9537;45.594;9.294;2022-09-17T01:54:52;5.55;;;3.42;;
18818;SDS011;9537;45.594;9.294;2022-09-17T01:55:59;5.53;;;3.40;;
18818;SDS011;9537;45.594;9.294;2022-09-17T01:57:02;7.45;;;3.45;;
18818;SDS011;9537;45.594;9.294;2022-09-17T01:58:11;5.18;;;3.10;;
18818;SDS011;9537;45.594;9.294;2022-09-17T01:59:15;4.22;;;2.80;;
18818;SDS011;9537;45.594;9.294;2022-09-17T02:00:21;5.50;;;3.60;;
18818;SDS011;9537;45.594;9.294;2022-09-17T02:01:24;5.40;;;3.60;;
18818;SDS011;9537;45.594;9.294;2022-09-17T02:02:31;6.47;;;2.70;;
18818;SDS011;9537;45.594;9.294;2022-09-17T02:03:37;11.32;;;3.30;;
18818;SDS011;9537;45.594;9.294;2022-09-17T02:04:43;3.97;;;2.50;;
18818;SDS011;9537;45.594;9.294;2022-09-17T02:05:48;6.55;;;2.78;;
18818;SDS011;9537;45.594;9.294;2022-09-17T02:06:55;3.67;;;2.90;;
18818;SDS011;9537;45.594;9.294;2022-09-17T02:08:02;4.53;;;2.50;;
18818;SDS011;9537;45.594;9.294;2022-09-17T02:09:10;4.78;;;2.33;;
18818;SDS011;9537;45.594;9.294;2022-09-17T02:10:16;4.88;;;3.33;;
18818;SDS011;9537;45.594;9.294;2022-09-17T02:11:20;5.45;;;2.70;;
18818;SDS011;9537;45.594;9.294;2022-09-17T02:12:23;4.70;;;2.92;;
18818;SDS011;9537;45.594;9.294;2022-09-17T02:13:33;4.25;;;3.10;;
18818;SDS011;9537;45.594;9.294;2022-09-17T02:14:41;5.13;;;3.50;;
18818;SDS011;9537;45.594;9.294;2022-09-17T02:15:48;5.15;;;3.20;;
18818;SDS011;9537;45.594;9.294;2022-09-17T02:16:57;6.72;;;3.08;;
18818;SDS011;9537;45.594;9.294;2022-09-17T02:18:04;4.88;;;3.28;;
18818;SDS011;9537;45.594;9.294;2022-09-17T02:19:08;5.55;;;3.50;;
18818;SDS011;9537;45.594;9.294;2022-09-17T02:20:14;4.82;;;2.90;;
18818;SDS011;9537;45.594;9.294;2022-09-17T02:21:19;6.47;;;3.42;;
18818;SDS011;9537;45.594;9.294;2022-09-17T02:22:31;4.65;;;2.70;;
18818;SDS011;9537;45.594;9.294;2022-09-17T02:23:40;4.15;;;3.03;;
18818;SDS011;9537;45.594;9.294;2022-09-17T02:24:51;6.35;;;3.30;;
18818;SDS011;9537;45.594;9.294;2022-09-17T02:26:03;6.90;;;3.20;;
18818;SDS011;9537;45.594;9.294;2022-09-17T02:27:11;2.75;;;1.95;;
18818;SDS011;9537;45.594;9.294;2022-09-17T02:28:19;6.97;;;2.20;;
18818;SDS011;9537;45.594;9.294;2022-09-17T02:29:28;1.98;;;1.75;;
18818;SDS011;9537;45.594;9.294;2022-09-17T02:30:33;2.53;;;1.65;;
18818;SDS011;9537;45.594;9.294;2022-09-17T02:31:35;2.65;;;1.60;;
18818;SDS011;9537;45.594;9.294;2022-09-17T02:32:38;3.20;;;1.50;;
18818;SDS011;9537;45.594;9.294;2022-09-17T02:33:42;1.58;;;1.25;;
18818;SDS011;9537;45.594;9.294;2022-09-17T02:34:46;3.13;;;1.83;;
18818;SDS011;9537;45.594;9.294;2022-09-17T02:35:48;1.85;;;1.23;;
18818;SDS011;9537;45.594;9.294;2022-09-17T02:36:49;1.70;;;1.40;;
18818;SDS011;9537;45.594;9.294;2022-09-17T02:37:52;1.52;;;1.42;;
18818;SDS011;9537;45.594;9.294;2022-09-17T02:38:54;2.65;;;1.40;;
18818;SDS011;9537;45.594;9.294;2022-09-17T02:40:00;3.42;;;1.58;;
18818;SDS011;9537;45.594;9.294;2022-09-17T02:41:04;1.55;;;1.45;;
18818;SDS011;9537;45.594;9.294;2022-09-17T02:42:13;5.03;;;1.27;;
18818;SDS011;9537;45.594;9.294;2022-09-17T02:43:26;3.15;;;1.30;;
18818;SDS011;9537;45.594;9.294;2022-09-17T02:44:37;1.50;;;1.25;;
18818;SDS011;9537;45.594;9.294;2022-09-17T02:45:51;5.03;;;1.30;;
18818;SDS011;9537;45.594;9.294;2022-09-17T02:47:09;2.53;;;1.30;;
18818;SDS011;9537;45.594;9.294;2022-09-17T02:48:27;2.10;;;1.52;;
18818;SDS011;9537;45.594;9.294;2022-09-17T02:49:46;2.53;;;1.50;;
18818;SDS011;9537;45.594;9.294;2022-09-17T02:51:19;3.13;;;1.25;;
18818;SDS011;9537;45.594;9.294;2022-09-17T02:52:31;3.20;;;1.40;;
18818;SDS011;9537;45.594;9.294;2022-09-17T02:53:48;2.70;;;1.17;;
18818;SDS011;9537;45.594;9.294;2022-09-17T02:55:00;1.70;;;1.20;;
18818;SDS011;9537;45.594;9.294;2022-09-17T02:56:12;3.00;;;1.40;;
18818;SDS011;9537;45.594;9.294;2022-09-17T02:57:21;2.78;;;1.45;;
18818;SDS011;9537;45.594;9.294;2022-09-17T02:58:28;2.75;;;1.15;;
18818;SDS011;9537;45.594;9.294;2022-09-17T02:59:36;1.90;;;1.20;;
18818;SDS011;9537;45.594;9.294;2022-09-17T03:00:43;1.65;;;1.45;;
18818;SDS011;9537;45.594;9.294;2022-09-17T03:01:48;1.50;;;1.27;;
18818;SDS011;9537;45.594;9.294;2022-09-17T03:02:56;1.70;;;0.98;;
18818;SDS011;9537;45.594;9.294;2022-09-17T03:04:03;2.05;;;1.30;;
18818;SDS011;9537;45.594;9.294;2022-09-17T03:05:09;2.03;;;1.27;;
18818;SDS011;9537;45.594;9.294;2022-09-17T03:06:12;1.42;;;1.10;;
18818;SDS011;9537;45.594;9.294;2022-09-17T03:07:13;2.05;;;1.20;;
18818;SDS011;9537;45.594;9.294;2022-09-17T03:08:17;1.52;;;1.20;;
18818;SDS011;9537;45.594;9.294;2022-09-17T03:09:20;3.35;;;1.27;;
18818;SDS011;9537;45.594;9.294;2022-09-17T03:10:22;1.45;;;1.35;;
18818;SDS011;9537;45.594;9.294;2022-09-17T03:11:23;1.65;;;1.25;;
18818;SDS011;9537;45.594;9.294;2022-09-17T03:12:25;1.25;;;1.15;;
18818;SDS011;9537;45.594;9.294;2022-09-17T03:13:26;2.45;;;1.40;;
18818;SDS011;9537;45.594;9.294;2022-09-17T03:14:28;1.40;;;1.23;;
18818;SDS011;9537;45.594;9.294;2022-09-17T03:15:30;1.40;;;1.25;;
18818;SDS011;9537;45.594;9.294;2022-09-17T03:16:32;5.20;;;1.40;;
18818;SDS011;9537;45.594;9.294;2022-09-17T03:17:33;1.50;;;1.40;;
18818;SDS011;9537;45.594;9.294;2022-09-17T03:18:35;1.60;;;1.38;;
18818;SDS011;9537;45.594;9.294;2022-09-17T03:19:38;4.15;;;1.20;;
18818;SDS011;9537;45.594;9.294;2022-09-17T03:20:40;1.40;;;1.30;;
18818;SDS011;9537;45.594;9.294;2022-09-17T03:21:40;1.42;;;1.20;;
18818;SDS011;9537;45.594;9.294;2022-09-17T03:22:43;1.17;;;1.08;;
18818;SDS011;9537;45.594;9.294;2022-09-17T03:23:45;0.90;;;0.90;;
18818;SDS011;9537;45.594;9.294;2022-09-17T03:24:47;1.63;;;1.40;;
18818;SDS011;9537;45.594;9.294;2022-09-17T03:25:48;3.55;;;2.33;;
18818;SDS011;9537;45.594;9.294;2022-09-17T03:26:51;3.08;;;1.10;;
18818;SDS011;9537;45.594;9.294;2022-09-17T03:27:53;1.73;;;1.30;;
18818;SDS011;9537;45.594;9.294;2022-09-17T03:28:54;2.42;;;1.17;;
18818;SDS011;9537;45.594;9.294;2022-09-17T03:29:58;2.28;;;1.25;;
18818;SDS011;9537;45.594;9.294;2022-09-17T03:30:58;3.03;;;1.08;;
18818;SDS011;9537;45.594;9.294;2022-09-17T03:32:01;2.22;;;1.05;;
18818;SDS011;9537;45.594;9.294;2022-09-17T03:33:02;2.13;;;1.05;;
18818;SDS011;9537;45.594;9.294;2022-09-17T03:34:04;1.30;;;1.20;;
18818;SDS011;9537;45.594;9.294;2022-09-17T03:35:07;1.50;;;1.05;;
18818;SDS011;9537;45.594;9.294;2022-09-17T03:36:09;1.45;;;1.35;;
18818;SDS011;9537;45.594;9.294;2022-09-17T03:37:11;1.13;;;1.02;;
18818;SDS011;9537;45.594;9.294;2022-09-17T03:38:12;1.38;;;1.10;;
18818;SDS011;9537;45.594;9.294;2022-09-17T03:39:15;2.05;;;1.00;;
18818;SDS011;9537;45.594;9.294;2022-09-17T03:40:16;3.55;;;1.15;;
18818;SDS011;9537;45.594;9.294;2022-09-17T03:41:18;1.25;;;1.00;;
18818;SDS011;9537;45.594;9.294;2022-09-17T03:42:19;3.45;;;1.10;;
18818;SDS011;9537;45.594;9.294;2022-09-17T03:43:21;1.80;;;1.00;;
18818;SDS011;9537;45.594;9.294;2022-09-17T03:44:23;1.65;;;1.10;;
18818;SDS011;9537;45.594;9.294;2022-09-17T03:45:25;2.85;;;1.10;;
18818;SDS011;9537;45.594;9.294;2022-09-17T03:46:26;1.63;;;1.08;;
18818;SDS011;9537;45.594;9.294;2022-09-17T03:47:28;1.60;;;1.20;;
18818;SDS011;9537;45.594;9.294;2022-09-17T03:48:29;2.83;;;0.90;;
18818;SDS011;9537;45.594;9.294;2022-09-17T03:49:34;1.02;;;1.02;;
18818;SDS011;9537;45.594;9.294;2022-09-17T03:50:37;1.80;;;0.95;;
18818;SDS011;9537;45.594;9.294;2022-09-17T03:51:38;0.98;;;0.63;;
18818;SDS011;9537;45.594;9.294;2022-09-17T03:52:40;1.25;;;0.90;;
18818;SDS011;9537;45.594;9.294;2022-09-17T03:53:43;1.77;;;0.90;;
18818;SDS011;9537;45.594;9.294;2022-09-17T03:54:44;1.25;;;0.70;;
18818;SDS011;9537;45.594;9.294;2022-09-17T03:55:46;1.25;;;0.80;;
18818;SDS011;9537;45.594;9.294;2022-09-17T03:56:47;0.85;;;0.85;;
18818;SDS011;9537;45.594;9.294;2022-09-17T03:57:50;0.80;;;0.80;;
18818;SDS011;9537;45.594;9.294;2022-09-17T03:58:51;2.53;;;0.70;;
18818;SDS011;9537;45.594;9.294;2022-09-17T03:59:53;0.85;;;0.80;;
18818;SDS011;9537;45.594;9.294;2022-09-17T04:00:53;0.52;;;0.52;;
18818;SDS011;9537;45.594;9.294;2022-09-17T04:01:57;0.60;;;0.60;;
18818;SDS011;9537;45.594;9.294;2022-09-17T04:02:58;0.63;;;0.60;;
18818;SDS011;9537;45.594;9.294;2022-09-17T04:04:01;1.05;;;0.80;;
18818;SDS011;9537;45.594;9.294;2022-09-17T04:05:03;1.10;;;0.75;;
18818;SDS011;9537;45.594;9.294;2022-09-17T04:06:07;0.82;;;0.60;;
18818;SDS011;9537;45.594;9.294;2022-09-17T04:07:08;1.15;;;0.70;;
18818;SDS011;9537;45.594;9.294;2022-09-17T04:08:11;1.48;;;0.50;;
18818;SDS011;9537;45.594;9.294;2022-09-17T04:09:12;0.80;;;0.60;;
18818;SDS011;9537;45.594;9.294;2022-09-17T04:10:14;0.60;;;0.60;;
18818;SDS011;9537;45.594;9.294;2022-09-17T04:11:15;1.23;;;0.70;;
18818;SDS011;9537;45.594;9.294;2022-09-17T04:12:17;0.60;;;0.60;;
18818;SDS011;9537;45.594;9.294;2022-09-17T04:13:18;0.70;;;0.70;;
18818;SDS011;9537;45.594;9.294;2022-09-17T04:14:20;1.00;;;0.70;;
18818;SDS011;9537;45.594;9.294;2022-09-17T04:15:21;1.05;;;0.50;;
18818;SDS011;9537;45.594;9.294;2022-09-17T04:16:24;0.50;;;0.50;;
18818;SDS011;9537;45.594;9.294;2022-09-17T04:17:25;0.85;;;0.50;;
18818;SDS011;9537;45.594;9.294;2022-09-17T04:18:28;0.60;;;0.57;;
18818;SDS011;9537;45.594;9.294;2022-09-17T04:19:29;1.75;;;0.50;;
18818;SDS011;9537;45.594;9.294;2022-09-17T04:20:31;0.50;;;0.50;;
18818;SDS011;9537;45.594;9.294;2022-09-17T04:21:33;0.65;;;0.65;;
18818;SDS011;9537;45.594;9.294;2022-09-17T04:22:35;0.55;;;0.50;;
18818;SDS011;9537;45.594;9.294;2022-09-17T04:23:36;1.08;;;0.60;;
18818;SDS011;9537;45.594;9.294;2022-09-17T04:24:38;0.68;;;0.52;;
18818;SDS011;9537;45.594;9.294;2022-09-17T04:25:40;1.25;;;0.40;;
18818;SDS011;9537;45.594;9.294;2022-09-17T04:26:42;0.40;;;0.40;;
18818;SDS011;9537;45.594;9.294;2022-09-17T04:27:43;0.60;;;0.60;;
18818;SDS011;9537;45.594;9.294;2022-09-17T04:28:47;1.70;;;0.50;;
18818;SDS011;9537;45.594;9.294;2022-09-17T04:29:48;0.70;;;0.68;;
18818;SDS011;9537;45.594;9.294;2022-09-17T04:30:50;0.43;;;0.40;;
18818;SDS011;9537;45.594;9.294;2022-09-17T04:31:51;0.70;;;0.50;;
18818;SDS011;9537;45.594;9.294;2022-09-17T04:32:53;0.50;;;0.50;;
18818;SDS011;9537;45.594;9.294;2022-09-17T04:33:54;0.30;;;0.30;;
18818;SDS011;9537;45.594;9.294;2022-09-17T04:34:56;0.85;;;0.50;;
18818;SDS011;9537;45.594;9.294;2022-09-17T04:35:57;0.60;;;0.40;;
18818;SDS011;9537;45.594;9.294;2022-09-17T04:37:01;0.55;;;0.40;;
18818;SDS011;9537;45.594;9.294;2022-09-17T04:38:02;0.50;;;0.50;;
18818;SDS011;9537;45.594;9.294;2022-09-17T04:39:04;0.40;;;0.40;;
18818;SDS011;9537;45.594;9.294;2022-09-17T04:40:05;0.85;;;0.50;;
18818;SDS011;9537;45.594;9.294;2022-09-17T04:41:08;1.02;;;0.52;;
18818;SDS011;9537;45.594;9.294;2022-09-17T04:42:09;0.45;;;0.45;;
18818;SDS011;9537;45.594;9.294;2022-09-17T04:43:11;0.73;;;0.40;;
18818;SDS011;9537;45.594;9.294;2022-09-17T04:44:13;2.00;;;0.50;;
18818;SDS011;9537;45.594;9.294;2022-09-17T04:45:15;0.40;;;0.40;;
18818;SDS011;9537;45.594;9.294;2022-09-17T04:46:16;1.15;;;0.40;;
18818;SDS011;9537;45.594;9.294;2022-09-17T04:47:18;0.90;;;0.60;;
18818;SDS011;9537;45.594;9.294;2022-09-17T04:48:19;1.02;;;0.57;;
18818;SDS011;9537;45.594;9.294;2022-09-17T04:49:21;0.88;;;0.40;;
18818;SDS011;9537;45.594;9.294;2022-09-17T04:50:23;0.50;;;0.50;;
18818;SDS011;9537;45.594;9.294;2022-09-17T04:51:25;2.40;;;0.52;;
18818;SDS011;9537;45.594;9.294;2022-09-17T04:52:27;0.40;;;0.40;;
18818;SDS011;9537;45.594;9.294;2022-09-17T04:53:30;0.77;;;0.40;;
18818;SDS011;9537;45.594;9.294;2022-09-17T04:54:31;0.85;;;0.30;;
18818;SDS011;9537;45.594;9.294;2022-09-17T04:55:33;0.30;;;0.30;;
18818;SDS011;9537;45.594;9.294;2022-09-17T04:56:34;0.60;;;0.60;;
18818;SDS011;9537;45.594;9.294;2022-09-17T04:57:36;0.50;;;0.50;;
18818;SDS011;9537;45.594;9.294;2022-09-17T04:58:38;0.93;;;0.50;;
18818;SDS011;9537;45.594;9.294;2022-09-17T04:59:40;0.68;;;0.45;;
18818;SDS011;9537;45.594;9.294;2022-09-17T05:00:41;0.75;;;0.50;;
18818;SDS011;9537;45.594;9.294;2022-09-17T05:01:43;4.22;;;0.60;;
18818;SDS011;9537;45.594;9.294;2022-09-17T05:02:44;0.50;;;0.50;;
18818;SDS011;9537;45.594;9.294;2022-09-17T05:03:48;1.85;;;0.57;;
18818;SDS011;9537;45.594;9.294;2022-09-17T05:04:49;0.93;;;0.50;;
18818;SDS011;9537;45.594;9.294;2022-09-17T05:05:51;0.30;;;0.30;;
18818;SDS011;9537;45.594;9.294;2022-09-17T05:06:52;0.68;;;0.60;;
18818;SDS011;9537;45.594;9.294;2022-09-17T05:07:55;1.77;;;0.50;;
18818;SDS011;9537;45.594;9.294;2022-09-17T05:08:57;0.47;;;0.47;;
18818;SDS011;9537;45.594;9.294;2022-09-17T05:09:59;0.70;;;0.55;;
18818;SDS011;9537;45.594;9.294;2022-09-17T05:11:00;1.08;;;0.63;;
18818;SDS011;9537;45.594;9.294;2022-09-17T05:12:02;0.55;;;0.40;;
18818;SDS011;9537;45.594;9.294;2022-09-17T05:13:04;0.73;;;0.43;;
18818;SDS011;9537;45.594;9.294;2022-09-17T05:14:06;0.47;;;0.47;;
18818;SDS011;9537;45.594;9.294;2022-09-17T05:15:07;0.43;;;0.43;;
18818;SDS011;9537;45.594;9.294;2022-09-17T05:16:09;3.85;;;0.38;;
18818;SDS011;9537;45.594;9.294;2022-09-17T05:17:11;1.27;;;0.40;;
18818;SDS011;9537;45.594;9.294;2022-09-17T05:18:13;1.10;;;0.60;;
18818;SDS011;9537;45.594;9.294;2022-09-17T05:19:14;0.30;;;0.30;;
18818;SDS011;9537;45.594;9.294;2022-09-17T05:20:16;0.43;;;0.40;;
18818;SDS011;9537;45.594;9.294;2022-09-17T05:21:18;1.50;;;0.50;;
18818;SDS011;9537;45.594;9.294;2022-09-17T05:22:20;0.98;;;0.50;;
18818;SDS011;9537;45.594;9.294;2022-09-17T05:23:23;1.98;;;0.45;;
18818;SDS011;9537;45.594;9.294;2022-09-17T05:24:25;0.60;;;0.40;;
18818;SDS011;9537;45.594;9.294;2022-09-17T05:25:26;1.80;;;0.60;;
18818;SDS011;9537;45.594;9.294;2022-09-17T05:26:28;1.05;;;0.50;;
18818;SDS011;9537;45.594;9.294;2022-09-17T05:27:29;0.70;;;0.47;;
18818;SDS011;9537;45.594;9.294;2022-09-17T05:28:31;0.70;;;0.50;;
18818;SDS011;9537;45.594;9.294;2022-09-17T05:29:32;0.40;;;0.40;;
18818;SDS011;9537;45.594;9.294;2022-09-17T05:30:36;0.90;;;0.60;;
18818;SDS011;9537;45.594;9.294;2022-09-17T05:31:38;0.43;;;0.43;;
18818;SDS011;9537;45.594;9.294;2022-09-17T05:32:39;1.65;;;0.30;;
18818;SDS011;9537;45.594;9.294;2022-09-17T05:33:41;0.40;;;0.40;;
18818;SDS011;9537;45.594;9.294;2022-09-17T05:34:42;0.73;;;0.32;;
18818;SDS011;9537;45.594;9.294;2022-09-17T05:35:44;0.65;;;0.50;;
18818;SDS011;9537;45.594;9.294;2022-09-17T05:36:46;1.90;;;0.77;;
18818;SDS011;9537;45.594;9.294;2022-09-17T05:37:48;1.23;;;0.47;;
18818;SDS011;9537;45.594;9.294;2022-09-17T05:38:51;1.38;;;0.55;;
18818;SDS011;9537;45.594;9.294;2022-09-17T05:39:53;0.85;;;0.50;;
18818;SDS011;9537;45.594;9.294;2022-09-17T05:40:55;1.17;;;0.63;;
18818;SDS011;9537;45.594;9.294;2022-09-17T05:41:56;0.77;;;0.77;;
18818;SDS011;9537;45.594;9.294;2022-09-17T05:42:58;1.67;;;1.10;;
18818;SDS011;9537;45.594;9.294;2022-09-17T05:43:59;3.38;;;1.00;;
18818;SDS011;9537;45.594;9.294;2022-09-17T05:45:02;1.60;;;0.40;;
18818;SDS011;9537;45.594;9.294;2022-09-17T05:46:04;1.67;;;0.98;;
18818;SDS011;9537;45.594;9.294;2022-09-17T05:47:06;0.52;;;0.52;;
18818;SDS011;9537;45.594;9.294;2022-09-17T05:48:09;1.40;;;0.70;;
18818;SDS011;9537;45.594;9.294;2022-09-17T05:49:13;5.30;;;0.80;;
18818;SDS011;9537;45.594;9.294;2022-09-17T05:50:14;5.38;;;0.82;;
18818;SDS011;9537;45.594;9.294;2022-09-17T05:51:16;1.85;;;0.90;;
18818;SDS011;9537;45.594;9.294;2022-09-17T05:52:18;1.35;;;0.73;;
18818;SDS011;9537;45.594;9.294;2022-09-17T05:53:20;0.90;;;0.70;;
18818;SDS011;9537;45.594;9.294;2022-09-17T05:54:22;0.57;;;0.57;;
18818;SDS011;9537;45.594;9.294;2022-09-17T05:55:24;2.80;;;0.80;;
18818;SDS011;9537;45.594;9.294;2022-09-17T05:56:27;0.47;;;0.47;;
18818;SDS011;9537;45.594;9.294;2022-09-17T05:57:29;6.57;;;0.80;;
18818;SDS011;9537;45.594;9.294;2022-09-17T05:58:30;3.28;;;0.90;;
18818;SDS011;9537;45.594;9.294;2022-09-17T05:59:33;7.40;;;1.20;;
18818;SDS011;9537;45.594;9.294;2022-09-17T06:00:35;0.95;;;0.73;;
18818;SDS011;9537;45.594;9.294;2022-09-17T06:01:37;1.88;;;0.80;;
18818;SDS011;9537;45.594;9.294;2022-09-17T06:02:38;1.10;;;1.00;;
18818;SDS011;9537;45.594;9.294;2022-09-17T06:03:40;5.75;;;1.20;;
18818;SDS011;9537;45.594;9.294;2022-09-17T06:04:41;2.95;;;1.00;;
18818;SDS011;9537;45.594;9.294;2022-09-17T06:05:44;3.00;;;1.02;;
18818;SDS011;9537;45.594;9.294;2022-09-17T06:06:53;3.15;;;0.65;;
18818;SDS011;9537;45.594;9.294;2022-09-17T06:07:55;1.13;;;0.77;;
18818;SDS011;9537;45.594;9.294;2022-09-17T06:08:57;1.05;;;0.60;;
18818;SDS011;9537;45.594;9.294;2022-09-17T06:10:01;1.02;;;0.65;;
18818;SDS011;9537;45.594;9.294;2022-09-17T06:11:03;1.45;;;0.60;;
18818;SDS011;9537;45.594;9.294;2022-09-17T06:12:05;2.35;;;0.60;;
18818;SDS011;9537;45.594;9.294;2022-09-17T06:13:07;0.90;;;0.60;;
18818;SDS011;9537;45.594;9.294;2022-09-17T06:14:09;0.40;;;0.40;;
18818;SDS011;9537;45.594;9.294;2022-09-17T06:15:10;0.30;;;0.30;;
18818;SDS011;9537;45.594;9.294;2022-09-17T06:16:14;0.52;;;0.50;;
18818;SDS011;9537;45.594;9.294;2022-09-17T06:17:15;0.60;;;0.50;;
18818;SDS011;9537;45.594;9.294;2022-09-17T06:18:17;0.50;;;0.50;;
18818;SDS011;9537;45.594;9.294;2022-09-17T06:19:19;0.90;;;0.60;;
18818;SDS011;9537;45.594;9.294;2022-09-17T06:20:21;0.55;;;0.52;;
18818;SDS011;9537;45.594;9.294;2022-09-17T06:21:22;0.65;;;0.60;;
18818;SDS011;9537;45.594;9.294;2022-09-17T06:22:25;0.70;;;0.55;;
18818;SDS011;9537;45.594;9.294;2022-09-17T06:23:26;1.08;;;0.70;;
18818;SDS011;9537;45.594;9.294;2022-09-17T06:24:32;1.23;;;0.85;;
18818;SDS011;9537;45.594;9.294;2022-09-17T06:25:34;1.65;;;0.95;;
18818;SDS011;9537;45.594;9.294;2022-09-17T06:26:37;1.00;;;0.80;;
18818;SDS011;9537;45.594;9.294;2022-09-17T06:27:38;2.92;;;1.00;;
18818;SDS011;9537;45.594;9.294;2022-09-17T06:28:41;2.30;;;1.02;;
18818;SDS011;9537;45.594;9.294;2022-09-17T06:29:42;1.48;;;0.85;;
18818;SDS011;9537;45.594;9.294;2022-09-17T06:30:44;1.63;;;1.05;;
18818;SDS011;9537;45.594;9.294;2022-09-17T06:31:46;3.13;;;1.15;;
18818;SDS011;9537;45.594;9.294;2022-09-17T06:32:48;2.00;;;1.00;;
18818;SDS011;9537;45.594;9.294;2022-09-17T06:33:49;3.13;;;1.05;;
18818;SDS011;9537;45.594;9.294;2022-09-17T06:34:52;1.52;;;0.77;;